sensor_id;sensor_type;location;lat;lon;timestamp;P1;durP1;ratioP1;P2;durP2;ratioP2
59970;SDS011;45825;45.434;9.116;2024-02-04T00:00:44;16.50;;;11.00;;
59970;SDS011;45825;45.434;9.116;2024-02-04T00:03:10;14.80;;;10.27;;
59970;SDS011;45825;45.434;9.116;2024-02-04T00:05:35;18.30;;;11.75;;
59970;SDS011;45825;45.434;9.116;2024-02-04T00:08:00;14.80;;;10.30;;
59970;SDS011;45825;45.434;9.116;2024-02-04T00:10:27;16.05;;;10.60;;
59970;SDS011;45825;45.434;9.116;2024-02-04T00:12:52;15.68;;;11.00;;
59970;SDS011;45825;45.434;9.116;2024-02-04T00:15:18;17.05;;;11.68;;
59970;SDS011;45825;45.434;9.116;2024-02-04T00:17:44;18.45;;;11.30;;
59970;SDS011;45825;45.434;9.116;2024-02-04T00:20:09;17.15;;;10.50;;
59970;SDS011;45825;45.434;9.116;2024-02-04T00:22:35;15.38;;;10.80;;
59970;SDS011;45825;45.434;9.116;2024-02-04T00:25:00;15.18;;;10.77;;
59970;SDS011;45825;45.434;9.116;2024-02-04T00:27:32;16.10;;;10.73;;
59970;SDS011;45825;45.434;9.116;2024-02-04T00:29:58;16.58;;;11.27;;
59970;SDS011;45825;45.434;9.116;2024-02-04T00:32:24;16.42;;;11.65;;
59970;SDS011;45825;45.434;9.116;2024-02-04T00:34:51;17.75;;;10.63;;
59970;SDS011;45825;45.434;9.116;2024-02-04T00:37:16;17.98;;;10.85;;
59970;SDS011;45825;45.434;9.116;2024-02-04T00:39:42;17.77;;;11.80;;
59970;SDS011;45825;45.434;9.116;2024-02-04T00:42:07;15.43;;;11.18;;
59970;SDS011;45825;45.434;9.116;2024-02-04T00:44:32;17.25;;;10.25;;
59970;SDS011;45825;45.434;9.116;2024-02-04T00:46:57;14.32;;;10.05;;
59970;SDS011;45825;45.434;9.116;2024-02-04T00:49:23;17.98;;;10.95;;
59970;SDS011;45825;45.434;9.116;2024-02-04T00:51:48;14.93;;;10.15;;
59970;SDS011;45825;45.434;9.116;2024-02-04T00:54:13;14.73;;;10.70;;
59970;SDS011;45825;45.434;9.116;2024-02-04T00:56:39;15.88;;;10.70;;
59970;SDS011;45825;45.434;9.116;2024-02-04T00:59:04;17.02;;;10.45;;
59970;SDS011;45825;45.434;9.116;2024-02-04T01:01:29;14.07;;;10.13;;
59970;SDS011;45825;45.434;9.116;2024-02-04T01:03:54;15.32;;;10.57;;
59970;SDS011;45825;45.434;9.116;2024-02-04T01:06:20;18.42;;;11.27;;
59970;SDS011;45825;45.434;9.116;2024-02-04T01:08:45;17.05;;;10.52;;
59970;SDS011;45825;45.434;9.116;2024-02-04T01:11:10;16.35;;;10.85;;
59970;SDS011;45825;45.434;9.116;2024-02-04T01:13:36;14.43;;;10.82;;
59970;SDS011;45825;45.434;9.116;2024-02-04T01:16:01;15.65;;;10.95;;
59970;SDS011;45825;45.434;9.116;2024-02-04T01:18:26;15.95;;;10.55;;
59970;SDS011;45825;45.434;9.116;2024-02-04T01:20:52;16.73;;;10.80;;
59970;SDS011;45825;45.434;9.116;2024-02-04T01:23:17;15.48;;;10.82;;
59970;SDS011;45825;45.434;9.116;2024-02-04T01:25:43;18.55;;;10.52;;
59970;SDS011;45825;45.434;9.116;2024-02-04T01:28:09;16.25;;;10.27;;
59970;SDS011;45825;45.434;9.116;2024-02-04T01:30:34;16.60;;;10.75;;
59970;SDS011;45825;45.434;9.116;2024-02-04T01:32:59;17.42;;;10.95;;
59970;SDS011;45825;45.434;9.116;2024-02-04T01:35:25;17.30;;;10.75;;
59970;SDS011;45825;45.434;9.116;2024-02-04T01:37:50;16.95;;;10.07;;
59970;SDS011;45825;45.434;9.116;2024-02-04T01:40:15;17.15;;;10.30;;
59970;SDS011;45825;45.434;9.116;2024-02-04T01:42:41;14.35;;;10.40;;
59970;SDS011;45825;45.434;9.116;2024-02-04T01:45:06;16.83;;;10.25;;
59970;SDS011;45825;45.434;9.116;2024-02-04T01:47:32;15.93;;;9.63;;
59970;SDS011;45825;45.434;9.116;2024-02-04T01:49:58;15.65;;;10.77;;
59970;SDS011;45825;45.434;9.116;2024-02-04T01:52:23;14.35;;;10.00;;
59970;SDS011;45825;45.434;9.116;2024-02-04T01:54:49;15.05;;;10.60;;
59970;SDS011;45825;45.434;9.116;2024-02-04T01:57:15;15.98;;;10.80;;
59970;SDS011;45825;45.434;9.116;2024-02-04T01:59:41;14.23;;;10.95;;
59970;SDS011;45825;45.434;9.116;2024-02-04T02:02:07;17.85;;;10.80;;
59970;SDS011;45825;45.434;9.116;2024-02-04T02:04:33;17.17;;;10.32;;
59970;SDS011;45825;45.434;9.116;2024-02-04T02:06:59;16.38;;;10.57;;
59970;SDS011;45825;45.434;9.116;2024-02-04T02:09:25;17.13;;;10.75;;
59970;SDS011;45825;45.434;9.116;2024-02-04T02:12:07;16.25;;;10.93;;
59970;SDS011;45825;45.434;9.116;2024-02-04T02:14:45;15.73;;;10.98;;
59970;SDS011;45825;45.434;9.116;2024-02-04T02:17:15;18.35;;;10.93;;
59970;SDS011;45825;45.434;9.116;2024-02-04T02:19:49;18.00;;;11.63;;
59970;SDS011;45825;45.434;9.116;2024-02-04T02:22:29;19.77;;;12.13;;
59970;SDS011;45825;45.434;9.116;2024-02-04T02:25:02;16.60;;;12.10;;
59970;SDS011;45825;45.434;9.116;2024-02-04T02:27:29;21.73;;;13.00;;
59970;SDS011;45825;45.434;9.116;2024-02-04T02:29:55;19.95;;;13.15;;
59970;SDS011;45825;45.434;9.116;2024-02-04T02:32:20;19.98;;;13.20;;
59970;SDS011;45825;45.434;9.116;2024-02-04T02:34:46;18.15;;;12.95;;
59970;SDS011;45825;45.434;9.116;2024-02-04T02:39:55;17.02;;;12.25;;
59970;SDS011;45825;45.434;9.116;2024-02-04T02:42:26;19.88;;;13.60;;
59970;SDS011;45825;45.434;9.116;2024-02-04T02:44:53;20.52;;;13.60;;
59970;SDS011;45825;45.434;9.116;2024-02-04T02:47:20;21.77;;;14.60;;
59970;SDS011;45825;45.434;9.116;2024-02-04T02:49:48;22.20;;;14.43;;
59970;SDS011;45825;45.434;9.116;2024-02-04T02:52:16;20.80;;;15.23;;
59970;SDS011;45825;45.434;9.116;2024-02-04T02:54:41;23.88;;;15.82;;
59970;SDS011;45825;45.434;9.116;2024-02-04T02:57:07;23.88;;;16.30;;
59970;SDS011;45825;45.434;9.116;2024-02-04T02:59:32;23.10;;;15.57;;
59970;SDS011;45825;45.434;9.116;2024-02-04T03:01:57;19.00;;;14.30;;
59970;SDS011;45825;45.434;9.116;2024-02-04T03:04:22;23.38;;;15.18;;
59970;SDS011;45825;45.434;9.116;2024-02-04T03:06:48;22.85;;;14.68;;
59970;SDS011;45825;45.434;9.116;2024-02-04T03:09:13;19.25;;;14.73;;
59970;SDS011;45825;45.434;9.116;2024-02-04T03:11:38;20.45;;;13.60;;
59970;SDS011;45825;45.434;9.116;2024-02-04T03:14:04;18.13;;;13.52;;
59970;SDS011;45825;45.434;9.116;2024-02-04T03:16:29;21.13;;;14.27;;
59970;SDS011;45825;45.434;9.116;2024-02-04T03:18:54;19.58;;;14.20;;
59970;SDS011;45825;45.434;9.116;2024-02-04T03:21:19;20.75;;;14.30;;
59970;SDS011;45825;45.434;9.116;2024-02-04T03:23:45;23.58;;;14.75;;
59970;SDS011;45825;45.434;9.116;2024-02-04T03:26:10;19.67;;;15.13;;
59970;SDS011;45825;45.434;9.116;2024-02-04T03:28:36;20.48;;;14.57;;
59970;SDS011;45825;45.434;9.116;2024-02-04T03:31:02;20.27;;;15.25;;
59970;SDS011;45825;45.434;9.116;2024-02-04T03:33:28;22.17;;;14.70;;
59970;SDS011;45825;45.434;9.116;2024-02-04T03:35:53;19.23;;;14.65;;
59970;SDS011;45825;45.434;9.116;2024-02-04T03:38:19;21.58;;;15.05;;
59970;SDS011;45825;45.434;9.116;2024-02-04T03:40:44;19.02;;;14.35;;
59970;SDS011;45825;45.434;9.116;2024-02-04T03:43:10;24.55;;;14.82;;
59970;SDS011;45825;45.434;9.116;2024-02-04T03:45:35;24.27;;;15.80;;
59970;SDS011;45825;45.434;9.116;2024-02-04T03:48:01;21.13;;;15.07;;
59970;SDS011;45825;45.434;9.116;2024-02-04T03:50:27;24.40;;;15.25;;
59970;SDS011;45825;45.434;9.116;2024-02-04T03:52:52;21.63;;;15.45;;
59970;SDS011;45825;45.434;9.116;2024-02-04T03:55:18;20.40;;;15.18;;
59970;SDS011;45825;45.434;9.116;2024-02-04T03:57:43;22.95;;;16.00;;
59970;SDS011;45825;45.434;9.116;2024-02-04T04:00:09;22.02;;;16.00;;
59970;SDS011;45825;45.434;9.116;2024-02-04T04:02:34;22.45;;;15.93;;
59970;SDS011;45825;45.434;9.116;2024-02-04T04:05:00;23.95;;;15.98;;
59970;SDS011;45825;45.434;9.116;2024-02-04T04:07:25;22.98;;;16.13;;
59970;SDS011;45825;45.434;9.116;2024-02-04T04:09:50;22.10;;;15.70;;
59970;SDS011;45825;45.434;9.116;2024-02-04T04:12:15;23.88;;;16.63;;
59970;SDS011;45825;45.434;9.116;2024-02-04T04:14:41;26.08;;;17.63;;
59970;SDS011;45825;45.434;9.116;2024-02-04T04:17:06;22.20;;;17.15;;
59970;SDS011;45825;45.434;9.116;2024-02-04T04:19:31;22.98;;;15.93;;
59970;SDS011;45825;45.434;9.116;2024-02-04T04:21:58;21.80;;;15.93;;
59970;SDS011;45825;45.434;9.116;2024-02-04T04:24:24;22.67;;;16.60;;
59970;SDS011;45825;45.434;9.116;2024-02-04T04:26:50;27.48;;;17.65;;
59970;SDS011;45825;45.434;9.116;2024-02-04T04:29:15;25.00;;;17.35;;
59970;SDS011;45825;45.434;9.116;2024-02-04T04:31:40;26.30;;;17.55;;
59970;SDS011;45825;45.434;9.116;2024-02-04T04:34:06;24.08;;;17.10;;
59970;SDS011;45825;45.434;9.116;2024-02-04T04:36:31;28.77;;;18.75;;
59970;SDS011;45825;45.434;9.116;2024-02-04T04:38:56;23.70;;;17.60;;
59970;SDS011;45825;45.434;9.116;2024-02-04T04:41:21;25.17;;;17.63;;
59970;SDS011;45825;45.434;9.116;2024-02-04T04:43:47;23.10;;;17.27;;
59970;SDS011;45825;45.434;9.116;2024-02-04T04:46:12;21.45;;;15.70;;
59970;SDS011;45825;45.434;9.116;2024-02-04T04:48:37;21.98;;;15.57;;
59970;SDS011;45825;45.434;9.116;2024-02-04T04:51:03;20.55;;;14.75;;
59970;SDS011;45825;45.434;9.116;2024-02-04T04:53:28;22.65;;;14.57;;
59970;SDS011;45825;45.434;9.116;2024-02-04T04:55:53;22.55;;;15.00;;
59970;SDS011;45825;45.434;9.116;2024-02-04T04:58:19;21.13;;;14.88;;
59970;SDS011;45825;45.434;9.116;2024-02-04T05:00:44;21.52;;;14.43;;
59970;SDS011;45825;45.434;9.116;2024-02-04T05:03:09;20.35;;;14.52;;
59970;SDS011;45825;45.434;9.116;2024-02-04T05:05:35;17.92;;;14.32;;
59970;SDS011;45825;45.434;9.116;2024-02-04T05:08:00;21.00;;;14.75;;
59970;SDS011;45825;45.434;9.116;2024-02-04T05:10:25;18.58;;;14.55;;
59970;SDS011;45825;45.434;9.116;2024-02-04T05:12:50;21.10;;;14.13;;
59970;SDS011;45825;45.434;9.116;2024-02-04T05:15:16;18.90;;;13.38;;
59970;SDS011;45825;45.434;9.116;2024-02-04T05:17:41;17.67;;;14.20;;
59970;SDS011;45825;45.434;9.116;2024-02-04T05:20:07;20.15;;;15.40;;
59970;SDS011;45825;45.434;9.116;2024-02-04T05:22:32;21.70;;;14.73;;
59970;SDS011;45825;45.434;9.116;2024-02-04T05:24:58;18.92;;;14.18;;
59970;SDS011;45825;45.434;9.116;2024-02-04T05:27:23;20.00;;;15.30;;
59970;SDS011;45825;45.434;9.116;2024-02-04T05:29:49;18.92;;;15.10;;
59970;SDS011;45825;45.434;9.116;2024-02-04T05:32:14;19.88;;;14.60;;
59970;SDS011;45825;45.434;9.116;2024-02-04T05:34:39;22.02;;;15.35;;
59970;SDS011;45825;45.434;9.116;2024-02-04T05:37:05;17.38;;;14.38;;
59970;SDS011;45825;45.434;9.116;2024-02-04T05:39:30;20.00;;;15.45;;
59970;SDS011;45825;45.434;9.116;2024-02-04T05:41:55;19.40;;;15.05;;
59970;SDS011;45825;45.434;9.116;2024-02-04T05:44:21;20.75;;;15.40;;
59970;SDS011;45825;45.434;9.116;2024-02-04T05:46:46;20.83;;;15.80;;
59970;SDS011;45825;45.434;9.116;2024-02-04T05:49:11;20.90;;;15.23;;
59970;SDS011;45825;45.434;9.116;2024-02-04T05:51:40;21.35;;;15.52;;
59970;SDS011;45825;45.434;9.116;2024-02-04T05:54:06;21.98;;;15.25;;
59970;SDS011;45825;45.434;9.116;2024-02-04T05:56:32;21.42;;;15.50;;
59970;SDS011;45825;45.434;9.116;2024-02-04T05:58:57;22.50;;;16.02;;
59970;SDS011;45825;45.434;9.116;2024-02-04T06:01:23;20.67;;;15.85;;
59970;SDS011;45825;45.434;9.116;2024-02-04T06:03:48;21.58;;;15.75;;
59970;SDS011;45825;45.434;9.116;2024-02-04T06:06:14;19.52;;;15.05;;
59970;SDS011;45825;45.434;9.116;2024-02-04T06:08:40;20.80;;;15.52;;
59970;SDS011;45825;45.434;9.116;2024-02-04T06:11:09;20.23;;;15.45;;
59970;SDS011;45825;45.434;9.116;2024-02-04T06:13:35;19.92;;;15.27;;
59970;SDS011;45825;45.434;9.116;2024-02-04T06:16:00;21.77;;;15.88;;
59970;SDS011;45825;45.434;9.116;2024-02-04T06:18:26;21.58;;;16.02;;
59970;SDS011;45825;45.434;9.116;2024-02-04T06:20:51;20.58;;;15.70;;
59970;SDS011;45825;45.434;9.116;2024-02-04T06:23:16;22.98;;;16.30;;
59970;SDS011;45825;45.434;9.116;2024-02-04T06:25:43;19.02;;;15.60;;
59970;SDS011;45825;45.434;9.116;2024-02-04T06:28:09;20.13;;;15.13;;
59970;SDS011;45825;45.434;9.116;2024-02-04T06:30:34;21.58;;;15.25;;
59970;SDS011;45825;45.434;9.116;2024-02-04T06:32:59;19.55;;;15.35;;
59970;SDS011;45825;45.434;9.116;2024-02-04T06:35:24;24.05;;;16.13;;
59970;SDS011;45825;45.434;9.116;2024-02-04T06:37:50;22.38;;;16.05;;
59970;SDS011;45825;45.434;9.116;2024-02-04T06:40:15;21.23;;;16.83;;
59970;SDS011;45825;45.434;9.116;2024-02-04T06:42:40;22.05;;;15.85;;
59970;SDS011;45825;45.434;9.116;2024-02-04T06:45:06;22.08;;;16.70;;
59970;SDS011;45825;45.434;9.116;2024-02-04T06:47:31;22.48;;;16.77;;
59970;SDS011;45825;45.434;9.116;2024-02-04T06:49:57;19.95;;;15.65;;
59970;SDS011;45825;45.434;9.116;2024-02-04T06:52:22;20.33;;;15.68;;
59970;SDS011;45825;45.434;9.116;2024-02-04T06:54:47;22.50;;;16.00;;
59970;SDS011;45825;45.434;9.116;2024-02-04T06:57:13;19.05;;;15.55;;
59970;SDS011;45825;45.434;9.116;2024-02-04T06:59:38;21.30;;;16.00;;
59970;SDS011;45825;45.434;9.116;2024-02-04T07:02:03;21.50;;;15.48;;
59970;SDS011;45825;45.434;9.116;2024-02-04T07:04:29;21.17;;;15.90;;
59970;SDS011;45825;45.434;9.116;2024-02-04T07:06:54;19.17;;;14.35;;
59970;SDS011;45825;45.434;9.116;2024-02-04T07:09:19;16.50;;;13.45;;
59970;SDS011;45825;45.434;9.116;2024-02-04T07:11:45;19.13;;;14.88;;
59970;SDS011;45825;45.434;9.116;2024-02-04T07:14:10;18.75;;;14.25;;
59970;SDS011;45825;45.434;9.116;2024-02-04T07:16:36;19.15;;;14.73;;
59970;SDS011;45825;45.434;9.116;2024-02-04T07:19:01;21.10;;;14.35;;
59970;SDS011;45825;45.434;9.116;2024-02-04T07:21:27;26.55;;;16.73;;
59970;SDS011;45825;45.434;9.116;2024-02-04T07:23:53;19.92;;;14.82;;
59970;SDS011;45825;45.434;9.116;2024-02-04T07:26:18;20.92;;;14.55;;
59970;SDS011;45825;45.434;9.116;2024-02-04T07:28:43;24.15;;;16.00;;
59970;SDS011;45825;45.434;9.116;2024-02-04T07:31:10;20.50;;;15.27;;
59970;SDS011;45825;45.434;9.116;2024-02-04T07:33:35;20.52;;;15.23;;
59970;SDS011;45825;45.434;9.116;2024-02-04T07:36:01;18.92;;;14.65;;
59970;SDS011;45825;45.434;9.116;2024-02-04T07:38:27;20.48;;;14.20;;
59970;SDS011;45825;45.434;9.116;2024-02-04T07:40:52;20.38;;;14.95;;
59970;SDS011;45825;45.434;9.116;2024-02-04T07:43:19;23.08;;;14.25;;
59970;SDS011;45825;45.434;9.116;2024-02-04T07:45:44;18.23;;;13.43;;
59970;SDS011;45825;45.434;9.116;2024-02-04T07:48:10;16.45;;;13.27;;
59970;SDS011;45825;45.434;9.116;2024-02-04T07:50:35;17.65;;;13.13;;
59970;SDS011;45825;45.434;9.116;2024-02-04T07:53:00;20.50;;;14.50;;
59970;SDS011;45825;45.434;9.116;2024-02-04T07:55:26;17.83;;;12.77;;
59970;SDS011;45825;45.434;9.116;2024-02-04T07:57:51;18.30;;;13.43;;
59970;SDS011;45825;45.434;9.116;2024-02-04T08:00:16;17.83;;;13.45;;
59970;SDS011;45825;45.434;9.116;2024-02-04T08:02:43;18.48;;;14.27;;
59970;SDS011;45825;45.434;9.116;2024-02-04T08:05:09;19.25;;;14.43;;
59970;SDS011;45825;45.434;9.116;2024-02-04T08:07:34;18.67;;;14.52;;
59970;SDS011;45825;45.434;9.116;2024-02-04T08:10:00;18.33;;;13.90;;
59970;SDS011;45825;45.434;9.116;2024-02-04T08:12:25;19.25;;;13.15;;
59970;SDS011;45825;45.434;9.116;2024-02-04T08:14:50;23.08;;;15.32;;
59970;SDS011;45825;45.434;9.116;2024-02-04T08:17:15;18.55;;;15.00;;
59970;SDS011;45825;45.434;9.116;2024-02-04T08:19:41;20.40;;;14.70;;
59970;SDS011;45825;45.434;9.116;2024-02-04T08:22:06;20.58;;;14.90;;
59970;SDS011;45825;45.434;9.116;2024-02-04T08:24:32;20.65;;;16.05;;
59970;SDS011;45825;45.434;9.116;2024-02-04T08:26:58;20.98;;;14.95;;
59970;SDS011;45825;45.434;9.116;2024-02-04T08:29:24;21.00;;;15.60;;
59970;SDS011;45825;45.434;9.116;2024-02-04T08:31:49;21.65;;;15.75;;
59970;SDS011;45825;45.434;9.116;2024-02-04T08:34:15;22.83;;;15.73;;
59970;SDS011;45825;45.434;9.116;2024-02-04T08:36:40;24.83;;;16.25;;
59970;SDS011;45825;45.434;9.116;2024-02-04T08:39:06;20.15;;;15.98;;
59970;SDS011;45825;45.434;9.116;2024-02-04T08:41:31;22.80;;;15.60;;
59970;SDS011;45825;45.434;9.116;2024-02-04T08:43:56;22.27;;;15.63;;
59970;SDS011;45825;45.434;9.116;2024-02-04T08:46:22;21.35;;;15.93;;
59970;SDS011;45825;45.434;9.116;2024-02-04T08:48:47;20.88;;;16.48;;
59970;SDS011;45825;45.434;9.116;2024-02-04T08:51:12;22.83;;;15.25;;
59970;SDS011;45825;45.434;9.116;2024-02-04T08:53:38;21.15;;;15.20;;
59970;SDS011;45825;45.434;9.116;2024-02-04T08:56:05;22.55;;;14.18;;
59970;SDS011;45825;45.434;9.116;2024-02-04T08:58:31;20.80;;;15.18;;
59970;SDS011;45825;45.434;9.116;2024-02-04T09:00:56;20.92;;;14.63;;
59970;SDS011;45825;45.434;9.116;2024-02-04T09:03:21;23.65;;;15.80;;
59970;SDS011;45825;45.434;9.116;2024-02-04T09:05:48;21.00;;;15.45;;
59970;SDS011;45825;45.434;9.116;2024-02-04T09:08:13;19.55;;;14.57;;
59970;SDS011;45825;45.434;9.116;2024-02-04T09:10:39;21.25;;;15.73;;
59970;SDS011;45825;45.434;9.116;2024-02-04T09:13:04;21.48;;;15.63;;
59970;SDS011;45825;45.434;9.116;2024-02-04T09:15:29;20.30;;;15.73;;
59970;SDS011;45825;45.434;9.116;2024-02-04T09:17:55;21.83;;;16.02;;
59970;SDS011;45825;45.434;9.116;2024-02-04T09:20:20;23.40;;;16.65;;
59970;SDS011;45825;45.434;9.116;2024-02-04T09:22:45;23.92;;;16.45;;
59970;SDS011;45825;45.434;9.116;2024-02-04T09:25:12;20.17;;;16.17;;
59970;SDS011;45825;45.434;9.116;2024-02-04T09:27:37;23.48;;;16.83;;
59970;SDS011;45825;45.434;9.116;2024-02-04T09:30:03;22.40;;;16.63;;
59970;SDS011;45825;45.434;9.116;2024-02-04T09:32:28;20.55;;;15.40;;
59970;SDS011;45825;45.434;9.116;2024-02-04T09:34:54;20.38;;;15.82;;
59970;SDS011;45825;45.434;9.116;2024-02-04T09:37:19;23.30;;;16.10;;
59970;SDS011;45825;45.434;9.116;2024-02-04T09:39:44;19.58;;;15.43;;
59970;SDS011;45825;45.434;9.116;2024-02-04T09:42:10;21.75;;;16.20;;
59970;SDS011;45825;45.434;9.116;2024-02-04T09:44:44;22.55;;;16.88;;
59970;SDS011;45825;45.434;9.116;2024-02-04T09:47:09;19.92;;;15.82;;
59970;SDS011;45825;45.434;9.116;2024-02-04T09:49:37;21.10;;;14.93;;
59970;SDS011;45825;45.434;9.116;2024-02-04T09:52:08;18.42;;;14.70;;
59970;SDS011;45825;45.434;9.116;2024-02-04T09:54:35;19.17;;;15.25;;
59970;SDS011;45825;45.434;9.116;2024-02-04T09:57:10;19.30;;;14.90;;
59970;SDS011;45825;45.434;9.116;2024-02-04T09:59:35;20.15;;;15.50;;
59970;SDS011;45825;45.434;9.116;2024-02-04T10:02:01;19.52;;;15.05;;
59970;SDS011;45825;45.434;9.116;2024-02-04T10:04:29;22.05;;;16.27;;
59970;SDS011;45825;45.434;9.116;2024-02-04T10:06:54;18.05;;;15.02;;
59970;SDS011;45825;45.434;9.116;2024-02-04T10:09:20;22.20;;;14.98;;
59970;SDS011;45825;45.434;9.116;2024-02-04T10:11:46;20.05;;;15.50;;
59970;SDS011;45825;45.434;9.116;2024-02-04T10:14:11;20.38;;;16.00;;
59970;SDS011;45825;45.434;9.116;2024-02-04T10:16:37;19.95;;;16.65;;
59970;SDS011;45825;45.434;9.116;2024-02-04T10:19:02;21.40;;;16.67;;
59970;SDS011;45825;45.434;9.116;2024-02-04T10:21:28;20.70;;;15.88;;
59970;SDS011;45825;45.434;9.116;2024-02-04T10:23:53;21.50;;;16.08;;
59970;SDS011;45825;45.434;9.116;2024-02-04T10:26:18;20.85;;;15.73;;
59970;SDS011;45825;45.434;9.116;2024-02-04T10:28:47;20.00;;;15.75;;
59970;SDS011;45825;45.434;9.116;2024-02-04T10:31:13;18.08;;;15.18;;
59970;SDS011;45825;45.434;9.116;2024-02-04T10:33:39;20.80;;;15.93;;
59970;SDS011;45825;45.434;9.116;2024-02-04T10:36:05;20.33;;;15.43;;
59970;SDS011;45825;45.434;9.116;2024-02-04T10:38:31;18.75;;;15.13;;
59970;SDS011;45825;45.434;9.116;2024-02-04T10:41:00;19.83;;;14.80;;
59970;SDS011;45825;45.434;9.116;2024-02-04T10:43:31;18.90;;;14.50;;
59970;SDS011;45825;45.434;9.116;2024-02-04T10:48:26;19.48;;;14.63;;
59970;SDS011;45825;45.434;9.116;2024-02-04T10:50:54;21.20;;;16.63;;
59970;SDS011;45825;45.434;9.116;2024-02-04T10:53:21;25.02;;;18.52;;
59970;SDS011;45825;45.434;9.116;2024-02-04T10:55:47;21.92;;;15.95;;
59970;SDS011;45825;45.434;9.116;2024-02-04T10:58:14;20.42;;;16.42;;
59970;SDS011;45825;45.434;9.116;2024-02-04T11:00:41;21.45;;;17.20;;
59970;SDS011;45825;45.434;9.116;2024-02-04T11:03:08;22.77;;;16.60;;
59970;SDS011;45825;45.434;9.116;2024-02-04T11:05:35;22.02;;;16.73;;
59970;SDS011;45825;45.434;9.116;2024-02-04T11:08:04;20.58;;;16.58;;
59970;SDS011;45825;45.434;9.116;2024-02-04T11:10:30;21.55;;;16.33;;
59970;SDS011;45825;45.434;9.116;2024-02-04T11:12:57;20.63;;;14.60;;
59970;SDS011;45825;45.434;9.116;2024-02-04T11:15:24;17.50;;;12.75;;
59970;SDS011;45825;45.434;9.116;2024-02-04T11:26:04;15.75;;;12.30;;
59970;SDS011;45825;45.434;9.116;2024-02-04T11:28:30;14.88;;;9.90;;
59970;SDS011;45825;45.434;9.116;2024-02-04T11:30:56;12.40;;;9.90;;
59970;SDS011;45825;45.434;9.116;2024-02-04T11:33:22;14.68;;;10.00;;
59970;SDS011;45825;45.434;9.116;2024-02-04T11:35:58;14.57;;;9.70;;
59970;SDS011;45825;45.434;9.116;2024-02-04T11:38:47;14.80;;;10.02;;
59970;SDS011;45825;45.434;9.116;2024-02-04T11:41:20;16.88;;;11.25;;
59970;SDS011;45825;45.434;9.116;2024-02-04T11:43:47;14.63;;;10.73;;
59970;SDS011;45825;45.434;9.116;2024-02-04T11:46:17;14.70;;;10.35;;
59970;SDS011;45825;45.434;9.116;2024-02-04T11:48:50;13.63;;;10.90;;
59970;SDS011;45825;45.434;9.116;2024-02-04T11:51:16;13.10;;;10.43;;
59970;SDS011;45825;45.434;9.116;2024-02-04T11:53:42;15.95;;;12.18;;
59970;SDS011;45825;45.434;9.116;2024-02-04T11:56:07;14.30;;;11.20;;
59970;SDS011;45825;45.434;9.116;2024-02-04T11:58:33;14.07;;;11.13;;
59970;SDS011;45825;45.434;9.116;2024-02-04T12:01:00;14.07;;;10.93;;
59970;SDS011;45825;45.434;9.116;2024-02-04T12:03:29;14.48;;;10.82;;
59970;SDS011;45825;45.434;9.116;2024-02-04T12:05:56;14.95;;;11.13;;
59970;SDS011;45825;45.434;9.116;2024-02-04T12:08:22;14.57;;;10.82;;
59970;SDS011;45825;45.434;9.116;2024-02-04T12:10:48;13.40;;;10.55;;
59970;SDS011;45825;45.434;9.116;2024-02-04T12:13:14;15.50;;;11.27;;
59970;SDS011;45825;45.434;9.116;2024-02-04T12:15:40;14.52;;;10.75;;
59970;SDS011;45825;45.434;9.116;2024-02-04T12:18:07;12.70;;;10.40;;
59970;SDS011;45825;45.434;9.116;2024-02-04T12:20:32;13.52;;;9.98;;
59970;SDS011;45825;45.434;9.116;2024-02-04T12:22:58;15.43;;;11.18;;
59970;SDS011;45825;45.434;9.116;2024-02-04T12:25:23;17.33;;;11.35;;
59970;SDS011;45825;45.434;9.116;2024-02-04T12:27:51;15.20;;;12.13;;
59970;SDS011;45825;45.434;9.116;2024-02-04T12:30:17;14.30;;;11.60;;
59970;SDS011;45825;45.434;9.116;2024-02-04T12:32:43;14.98;;;11.25;;
59970;SDS011;45825;45.434;9.116;2024-02-04T12:35:08;16.88;;;11.57;;
59970;SDS011;45825;45.434;9.116;2024-02-04T12:37:38;15.90;;;11.27;;
59970;SDS011;45825;45.434;9.116;2024-02-04T12:40:03;14.50;;;10.18;;
59970;SDS011;45825;45.434;9.116;2024-02-04T12:42:31;16.45;;;11.27;;
59970;SDS011;45825;45.434;9.116;2024-02-04T12:44:56;16.48;;;12.20;;
59970;SDS011;45825;45.434;9.116;2024-02-04T12:47:23;16.35;;;11.35;;
59970;SDS011;45825;45.434;9.116;2024-02-04T12:49:51;14.65;;;12.30;;
59970;SDS011;45825;45.434;9.116;2024-02-04T12:52:22;17.33;;;11.55;;
59970;SDS011;45825;45.434;9.116;2024-02-04T12:54:48;16.23;;;11.98;;
59970;SDS011;45825;45.434;9.116;2024-02-04T12:57:21;16.60;;;11.77;;
59970;SDS011;45825;45.434;9.116;2024-02-04T12:59:48;15.98;;;12.70;;
59970;SDS011;45825;45.434;9.116;2024-02-04T13:02:13;14.30;;;10.85;;
59970;SDS011;45825;45.434;9.116;2024-02-04T13:04:40;15.80;;;12.52;;
59970;SDS011;45825;45.434;9.116;2024-02-04T13:07:07;18.58;;;12.80;;
59970;SDS011;45825;45.434;9.116;2024-02-04T13:09:42;16.13;;;12.48;;
59970;SDS011;45825;45.434;9.116;2024-02-04T13:12:08;16.67;;;12.30;;
59970;SDS011;45825;45.434;9.116;2024-02-04T13:14:38;15.85;;;12.88;;
59970;SDS011;45825;45.434;9.116;2024-02-04T13:17:04;17.80;;;13.10;;
59970;SDS011;45825;45.434;9.116;2024-02-04T13:19:37;17.23;;;13.65;;
59970;SDS011;45825;45.434;9.116;2024-02-04T13:22:04;18.05;;;14.52;;
59970;SDS011;45825;45.434;9.116;2024-02-04T13:24:32;16.02;;;13.73;;
59970;SDS011;45825;45.434;9.116;2024-02-04T13:26:58;19.38;;;14.50;;
59970;SDS011;45825;45.434;9.116;2024-02-04T13:29:25;19.05;;;14.20;;
59970;SDS011;45825;45.434;9.116;2024-02-04T13:31:51;20.70;;;14.50;;
59970;SDS011;45825;45.434;9.116;2024-02-04T13:34:17;17.60;;;14.52;;
59970;SDS011;45825;45.434;9.116;2024-02-04T13:36:42;18.23;;;14.70;;
59970;SDS011;45825;45.434;9.116;2024-02-04T13:39:08;19.23;;;14.38;;
59970;SDS011;45825;45.434;9.116;2024-02-04T13:41:34;20.58;;;15.25;;
59970;SDS011;45825;45.434;9.116;2024-02-04T13:44:00;18.70;;;15.90;;
59970;SDS011;45825;45.434;9.116;2024-02-04T13:46:26;18.95;;;15.18;;
59970;SDS011;45825;45.434;9.116;2024-02-04T13:48:51;19.50;;;15.77;;
59970;SDS011;45825;45.434;9.116;2024-02-04T13:51:17;19.45;;;15.70;;
59970;SDS011;45825;45.434;9.116;2024-02-04T13:53:42;22.15;;;16.08;;
59970;SDS011;45825;45.434;9.116;2024-02-04T13:56:07;20.58;;;15.98;;
59970;SDS011;45825;45.434;9.116;2024-02-04T13:58:33;22.08;;;17.13;;
59970;SDS011;45825;45.434;9.116;2024-02-04T14:00:58;21.70;;;17.25;;
59970;SDS011;45825;45.434;9.116;2024-02-04T14:03:24;22.00;;;16.40;;
59970;SDS011;45825;45.434;9.116;2024-02-04T14:05:49;21.90;;;16.48;;
59970;SDS011;45825;45.434;9.116;2024-02-04T14:08:15;21.98;;;16.75;;
59970;SDS011;45825;45.434;9.116;2024-02-04T14:10:40;24.65;;;16.65;;
59970;SDS011;45825;45.434;9.116;2024-02-04T14:13:06;20.60;;;17.00;;
59970;SDS011;45825;45.434;9.116;2024-02-04T14:15:31;22.80;;;18.17;;
59970;SDS011;45825;45.434;9.116;2024-02-04T14:17:57;22.10;;;17.65;;
59970;SDS011;45825;45.434;9.116;2024-02-04T14:20:22;21.80;;;17.38;;
59970;SDS011;45825;45.434;9.116;2024-02-04T14:22:48;23.75;;;17.70;;
59970;SDS011;45825;45.434;9.116;2024-02-04T14:25:14;23.33;;;18.08;;
59970;SDS011;45825;45.434;9.116;2024-02-04T14:27:39;21.88;;;17.92;;